createdAt,value
2022-08-18T00:01:48.675Z,23.10
2022-08-18T00:04:35.555Z,23.30
2022-08-18T00:07:03.376Z,23.20
2022-08-18T00:09:32.509Z,23.00
2022-08-18T00:12:03.081Z,23.00
2022-08-18T00:14:30.156Z,23.20
2022-08-18T00:16:56.895Z,23.30
2022-08-18T00:19:45.616Z,23.40
2022-08-18T00:22:16.013Z,23.50
2022-08-18T00:24:47.621Z,23.70
2022-08-18T00:27:14.843Z,23.70
2022-08-18T00:29:41.810Z,23.80
2022-08-18T00:32:17.626Z,23.90
2022-08-18T00:34:44.536Z,23.90
2022-08-18T00:37:11.642Z,24.00
2022-08-18T00:39:40.606Z,24.00
2022-08-18T00:42:27.681Z,24.00
2022-08-18T00:45:02.344Z,24.00
2022-08-18T00:47:41.483Z,24.00
2022-08-18T00:50:20.763Z,24.00
2022-08-18T00:52:56.803Z,24.00
2022-08-18T00:55:25.166Z,24.00
2022-08-18T00:58:00.422Z,24.00
2022-08-18T01:00:27.192Z,24.00
2022-08-18T01:02:58.151Z,24.00
2022-08-18T01:05:33.818Z,24.00
2022-08-18T01:08:01.081Z,23.90
2022-08-18T01:10:27.857Z,23.90
2022-08-18T01:12:57.937Z,23.90
2022-08-18T01:15:30.170Z,23.90
2022-08-18T01:18:22.485Z,23.90
2022-08-18T01:21:22.237Z,23.90
2022-08-18T01:23:51.520Z,23.90
2022-08-18T01:26:19.940Z,23.90
2022-08-18T01:28:49.378Z,23.90
2022-08-18T01:31:30.714Z,23.80
2022-08-18T01:33:57.467Z,23.80
2022-08-18T01:36:24.251Z,23.80
2022-08-18T01:38:53.168Z,23.70
2022-08-18T01:41:29.537Z,23.70
2022-08-18T01:43:59.055Z,23.70
2022-08-18T01:46:31.646Z,23.70
2022-08-18T01:49:00.614Z,23.70
2022-08-18T01:51:39.664Z,23.50
2022-08-18T01:54:12.221Z,23.50
2022-08-18T01:56:40.786Z,23.50
2022-08-18T01:59:10.383Z,23.50
2022-08-18T02:01:48.122Z,23.30
2022-08-18T02:04:34.357Z,23.20
2022-08-18T02:07:06.029Z,23.20
2022-08-18T02:09:33.633Z,23.30
2022-08-18T02:12:01.417Z,23.40
2022-08-18T02:14:31.275Z,23.50
2022-08-18T02:17:01.897Z,23.50
2022-08-18T02:19:36.802Z,23.50
2022-08-18T02:22:04.690Z,23.60
2022-08-18T02:24:31.392Z,23.60
2022-08-18T02:26:59.623Z,23.40
2022-08-18T02:29:26.549Z,23.20
2022-08-18T02:31:53.464Z,23.00
2022-08-18T02:34:20.202Z,22.90
2022-08-18T02:36:46.908Z,23.00
2022-08-18T02:39:14.555Z,23.00
2022-08-18T02:41:42.043Z,23.00
2022-08-18T02:44:09.190Z,23.10
2022-08-18T02:46:36.856Z,23.20
2022-08-18T02:49:05.222Z,23.10
2022-08-18T02:51:31.952Z,23.10
2022-08-18T02:53:59.284Z,23.00
2022-08-18T02:56:40.478Z,22.90
2022-08-18T02:59:12.343Z,23.00
2022-08-18T03:01:41.830Z,22.90
2022-08-18T03:04:11.094Z,22.80
2022-08-18T03:06:39.270Z,22.80
2022-08-18T03:09:08.668Z,22.90
2022-08-18T03:11:36.410Z,23.00
2022-08-18T03:14:05.283Z,23.00
2022-08-18T03:16:33.033Z,23.00
2022-08-18T03:19:03.486Z,23.00
2022-08-18T03:21:34.865Z,22.80
2022-08-18T03:24:02.963Z,22.70
2022-08-18T03:26:39.392Z,22.80
2022-08-18T03:29:06.233Z,22.70
2022-08-18T03:31:34.659Z,22.60
2022-08-18T03:34:01.996Z,22.60
2022-08-18T03:36:34.344Z,22.60
2022-08-18T03:39:10.637Z,22.50
2022-08-18T03:41:59.022Z,22.60
2022-08-18T03:44:30.607Z,22.60
2022-08-18T03:46:58.468Z,22.60
2022-08-18T03:49:25.972Z,22.60
2022-08-18T03:51:52.722Z,22.70
2022-08-18T03:54:19.493Z,22.70
2022-08-18T03:56:47.823Z,22.70
2022-08-18T03:59:19.695Z,22.70
2022-08-18T04:01:48.688Z,22.70
2022-08-18T04:04:19.465Z,22.80
2022-08-18T04:06:57.037Z,22.90
2022-08-18T04:09:25.812Z,22.90
2022-08-18T04:11:52.965Z,22.90
2022-08-18T04:14:24.837Z,22.80
2022-08-18T04:16:52.562Z,22.80
2022-08-18T04:19:26.171Z,22.70
2022-08-18T04:21:54.737Z,22.70
2022-08-18T04:24:21.673Z,22.70
2022-08-18T04:26:49.845Z,22.70
2022-08-18T04:29:19.684Z,22.80
2022-08-18T04:31:47.170Z,22.70
2022-08-18T04:34:14.676Z,22.60
2022-08-18T04:36:42.329Z,22.70
2022-08-18T04:39:11.178Z,22.80
2022-08-18T04:41:39.594Z,22.80
2022-08-18T04:44:09.437Z,22.80
2022-08-18T04:46:49.964Z,22.80
2022-08-18T04:49:18.527Z,22.80
2022-08-18T04:52:33.957Z,22.80
2022-08-18T04:54:54.181Z,22.80
2022-08-18T04:57:22.875Z,22.80
2022-08-18T04:59:52.146Z,22.80
2022-08-18T05:02:21.354Z,22.80
2022-08-18T05:04:48.606Z,22.70
2022-08-18T05:07:19.195Z,22.70
2022-08-18T05:09:46.535Z,22.70
2022-08-18T05:12:15.352Z,22.80
2022-08-18T05:14:46.995Z,22.80
2022-08-18T05:17:15.962Z,22.90
2022-08-18T05:19:44.656Z,22.80
2022-08-18T05:22:17.739Z,22.60
2022-08-18T05:24:45.643Z,22.60
2022-08-18T05:27:13.063Z,22.70
2022-08-18T05:29:41.631Z,22.60
2022-08-18T05:32:33.820Z,22.40
2022-08-18T05:35:05.062Z,22.30
2022-08-18T05:37:50.613Z,22.30
2022-08-18T05:40:20.283Z,22.40
2022-08-18T05:42:48.646Z,22.50
2022-08-18T05:45:18.657Z,22.60
2022-08-18T05:47:45.659Z,22.50
2022-08-18T05:50:17.218Z,22.50
2022-08-18T05:52:58.369Z,22.50
2022-08-18T05:55:51.488Z,22.50
2022-08-18T05:58:35.274Z,22.60
2022-08-18T06:01:10.865Z,22.80
2022-08-18T06:03:59.681Z,22.90
2022-08-18T06:06:30.515Z,23.00
2022-08-18T06:09:13.927Z,23.00
2022-08-18T06:11:40.902Z,22.80
2022-08-18T06:14:07.884Z,22.70
2022-08-18T06:17:03.202Z,22.80
2022-08-18T06:20:02.045Z,22.90
2022-08-18T06:23:06.456Z,23.00
2022-08-18T06:26:11.797Z,23.00
2022-08-18T06:28:55.399Z,22.90
2022-08-18T06:31:48.364Z,22.70
2022-08-18T06:34:40.625Z,22.60
2022-08-18T06:37:18.015Z,22.50
2022-08-18T06:39:51.393Z,22.50
2022-08-18T06:42:21.505Z,22.60
2022-08-18T06:44:55.935Z,22.50
2022-08-18T06:47:47.703Z,22.60
2022-08-18T06:50:26.483Z,22.60
2022-08-18T06:52:56.555Z,22.80
2022-08-18T06:55:39.559Z,23.00
2022-08-18T06:58:13.479Z,23.10
2022-08-18T07:00:56.363Z,23.20
2022-08-18T07:03:42.988Z,23.20
2022-08-18T07:06:23.864Z,23.30
2022-08-18T07:08:53.705Z,23.30
2022-08-18T07:11:25.349Z,23.30
2022-08-18T07:14:14.874Z,23.30
2022-08-18T07:16:59.599Z,23.30
2022-08-18T07:19:30.829Z,23.40
2022-08-18T07:22:18.685Z,23.40
2022-08-18T07:24:51.543Z,23.50
2022-08-18T07:27:43.430Z,23.50
2022-08-18T07:30:27.670Z,23.60
2022-08-18T07:33:22.142Z,23.60
2022-08-18T07:35:56.980Z,23.70
2022-08-18T07:38:43.502Z,23.90
2022-08-18T07:41:35.520Z,24.00
2022-08-18T07:44:13.592Z,24.10
2022-08-18T07:46:56.367Z,24.10
2022-08-18T07:49:26.245Z,23.90
2022-08-18T07:52:00.675Z,23.90
2022-08-18T07:55:03.630Z,24.00
2022-08-18T07:57:44.635Z,24.10
2022-08-18T08:00:40.979Z,24.20
2022-08-18T08:03:27.989Z,24.20
2022-08-18T08:06:07.887Z,24.20
2022-08-18T08:08:44.141Z,24.30
2022-08-18T08:11:18.527Z,24.50
2022-08-18T08:13:56.021Z,24.50
2022-08-18T08:16:28.477Z,24.50
2022-08-18T08:19:49.368Z,24.40
2022-08-18T08:22:19.436Z,24.30
2022-08-18T08:25:35.208Z,24.30
2022-08-18T08:28:35.342Z,24.20
2022-08-18T08:31:33.286Z,24.10
2022-08-18T08:34:17.206Z,24.20
2022-08-18T08:36:46.941Z,24.20
2022-08-18T08:39:31.702Z,24.00
2022-08-18T08:42:40.972Z,24.00
2022-08-18T08:45:19.985Z,23.90
2022-08-18T08:48:06.614Z,23.90
2022-08-18T08:50:49.822Z,23.90
2022-08-18T08:53:31.636Z,24.00
2022-08-18T08:56:02.939Z,24.00
2022-08-18T08:58:37.493Z,24.20
2022-08-18T09:01:04.931Z,24.40
2022-08-18T09:03:39.870Z,24.30
2022-08-18T09:06:10.862Z,24.30
2022-08-18T09:08:55.114Z,24.30
2022-08-18T09:11:28.492Z,24.30
2022-08-18T09:14:16.058Z,24.30
2022-08-18T09:16:56.459Z,24.30
2022-08-18T09:19:45.081Z,24.20
2022-08-18T09:22:33.508Z,24.30
2022-08-18T09:25:00.441Z,24.20
2022-08-18T09:28:06.793Z,24.20
2022-08-18T09:30:51.596Z,24.20
2022-08-18T09:33:47.613Z,24.20
2022-08-18T09:36:55.430Z,24.20
2022-08-18T09:39:56.779Z,24.20
2022-08-18T09:42:29.977Z,24.30
2022-08-18T09:45:01.458Z,24.30
2022-08-18T09:47:30.464Z,24.50
2022-08-18T09:50:06.217Z,24.40
2022-08-18T09:52:32.919Z,24.40
2022-08-18T09:55:01.557Z,24.50
2022-08-18T09:57:41.350Z,24.60
2022-08-18T10:00:18.633Z,24.90
2022-08-18T10:02:48.827Z,25.20
2022-08-18T10:05:16.985Z,25.50
2022-08-18T10:07:44.858Z,25.80
2022-08-18T10:11:02.386Z,26.00
2022-08-18T10:13:52.493Z,25.50
2022-08-18T10:20:26.745Z,25.70
2022-08-18T10:22:56.487Z,26.10
2022-08-18T10:25:39.772Z,26.40
2022-08-18T10:28:33.039Z,26.60
2022-08-18T10:33:59.952Z,26.60
2022-08-18T10:36:45.417Z,26.90
2022-08-18T10:39:43.934Z,26.60
2022-08-18T10:42:31.214Z,26.50
2022-08-18T10:45:38.174Z,26.50
2022-08-18T10:48:04.861Z,26.60
2022-08-18T10:50:52.523Z,26.90
2022-08-18T10:56:40.527Z,27.10
2022-08-18T10:59:32.247Z,27.20
2022-08-18T11:03:01.845Z,27.50
2022-08-18T11:05:31.814Z,27.80
2022-08-18T11:08:04.654Z,27.60
2022-08-18T11:11:06.655Z,27.30
2022-08-18T11:14:02.502Z,27.10
2022-08-18T11:16:50.496Z,27.50
2022-08-18T11:19:22.729Z,27.90
2022-08-18T11:21:52.671Z,27.80
2022-08-18T11:24:24.198Z,28.00
2022-08-18T11:26:53.612Z,28.30
2022-08-18T11:29:29.796Z,28.30
2022-08-18T11:32:05.497Z,28.30
2022-08-18T11:34:39.063Z,28.30
2022-08-18T11:37:23.800Z,28.50
2022-08-18T11:39:52.906Z,28.90
2022-08-18T11:42:26.560Z,28.60
2022-08-18T11:45:01.611Z,28.60
2022-08-18T11:47:30.350Z,29.00
2022-08-18T11:50:08.570Z,29.40
2022-08-18T11:52:53.960Z,29.70
2022-08-18T11:55:29.851Z,29.90
2022-08-18T11:57:59.531Z,29.90
2022-08-18T12:00:45.491Z,30.00
2022-08-18T12:03:38.008Z,30.10
2022-08-18T12:06:29.912Z,29.90
2022-08-18T12:09:02.299Z,29.30
2022-08-18T12:11:35.594Z,28.80
2022-08-18T12:14:30.574Z,28.40
2022-08-18T12:17:03.309Z,28.60
2022-08-18T12:19:34.660Z,28.70
2022-08-18T12:22:03.241Z,28.60
2022-08-18T12:24:39.430Z,28.90
2022-08-18T12:27:13.311Z,29.30
2022-08-18T12:29:48.285Z,29.30
2022-08-18T12:35:09.424Z,29.50
2022-08-18T12:40:25.782Z,29.10
2022-08-18T12:42:55.791Z,29.20
2022-08-18T12:45:23.559Z,29.30
2022-08-18T12:47:52.761Z,29.30
2022-08-18T12:50:20.034Z,29.50
2022-08-18T12:52:58.526Z,29.70
2022-08-18T12:55:31.474Z,29.80
2022-08-18T12:57:58.655Z,29.70
2022-08-18T13:00:27.794Z,29.80
2022-08-18T13:03:12.381Z,30.00
2022-08-18T13:05:39.278Z,30.30
2022-08-18T13:08:14.038Z,30.30
2022-08-18T13:11:00.386Z,30.40
2022-08-18T13:13:42.639Z,30.80
2022-08-18T13:16:10.285Z,31.10
2022-08-18T13:18:56.937Z,30.70
2022-08-18T13:21:24.115Z,30.60
2022-08-18T13:23:50.886Z,30.70
2022-08-18T13:26:26.216Z,30.90
2022-08-18T13:28:58.162Z,31.20
2022-08-18T13:31:26.881Z,31.20
2022-08-18T13:33:56.703Z,31.30
2022-08-18T13:36:44.271Z,31.40
2022-08-18T13:39:24.341Z,31.00
2022-08-18T13:41:53.227Z,30.80
2022-08-18T13:44:22.413Z,30.70
2022-08-18T13:46:56.027Z,30.60
2022-08-18T13:49:30.044Z,30.70
2022-08-18T13:52:01.031Z,30.80
2022-08-18T13:54:35.971Z,31.00
2022-08-18T13:57:07.767Z,30.50
2022-08-18T13:59:34.740Z,30.10
2022-08-18T14:02:05.897Z,29.50
2022-08-18T14:04:37.830Z,29.30
2022-08-18T14:07:10.954Z,29.60
2022-08-18T14:09:39.276Z,29.80
2022-08-18T14:12:22.609Z,29.60
2022-08-18T14:14:53.967Z,29.70
2022-08-18T14:17:23.607Z,29.70
2022-08-18T14:20:14.804Z,30.20
2022-08-18T14:23:00.467Z,30.70
2022-08-18T14:25:46.147Z,30.80
2022-08-18T14:28:13.324Z,30.80
2022-08-18T14:30:54.101Z,30.90
2022-08-18T14:33:34.489Z,30.60
2022-08-18T14:36:12.411Z,30.30
2022-08-18T14:38:40.231Z,30.20
2022-08-18T14:41:10.399Z,30.00
2022-08-18T14:43:51.776Z,29.90
2022-08-18T14:46:30.128Z,29.80
2022-08-18T14:48:59.552Z,30.10
2022-08-18T14:51:27.056Z,30.30
2022-08-18T14:53:54.544Z,30.60
2022-08-18T14:56:23.428Z,30.90
2022-08-18T14:58:55.786Z,31.00
2022-08-18T15:01:23.239Z,30.40
2022-08-18T15:03:50.053Z,30.20
2022-08-18T15:06:27.108Z,30.20
2022-08-18T15:08:57.041Z,30.20
2022-08-18T15:11:24.879Z,30.10
2022-08-18T15:13:55.409Z,30.00
2022-08-18T15:16:31.543Z,29.90
2022-08-18T15:19:00.308Z,29.70
2022-08-18T15:21:49.877Z,29.70
2022-08-18T15:24:39.745Z,29.80
2022-08-18T15:27:10.472Z,29.70
2022-08-18T15:29:46.338Z,29.60
2022-08-18T15:32:15.246Z,29.60
2022-08-18T15:34:46.653Z,29.60
2022-08-18T15:37:19.397Z,29.80
2022-08-18T15:39:46.837Z,29.90
2022-08-18T15:42:19.103Z,29.80
2022-08-18T15:44:47.248Z,29.70
2022-08-18T15:47:20.822Z,29.80
2022-08-18T15:49:48.437Z,29.50
2022-08-18T15:52:17.480Z,29.30
2022-08-18T15:54:51.015Z,29.20
2022-08-18T15:57:38.789Z,29.20
2022-08-18T16:00:06.127Z,29.10
2022-08-18T16:02:39.796Z,29.10
2022-08-18T16:05:10.396Z,29.20
2022-08-18T16:07:45.052Z,29.20
2022-08-18T16:10:13.653Z,29.10
2022-08-18T16:12:45.634Z,29.10
2022-08-18T16:15:23.387Z,29.10
2022-08-18T16:17:55.341Z,29.20
2022-08-18T16:20:31.924Z,29.30
2022-08-18T16:22:59.159Z,29.30
2022-08-18T16:25:26.311Z,29.20
2022-08-18T16:27:54.784Z,29.10
2022-08-18T16:30:24.252Z,29.10
2022-08-18T16:32:52.064Z,29.20
2022-08-18T16:35:19.922Z,29.30
2022-08-18T16:37:49.093Z,29.00
2022-08-18T16:40:17.854Z,28.60
2022-08-18T16:42:44.771Z,28.40
2022-08-18T16:45:14.747Z,28.50
2022-08-18T16:47:41.675Z,28.60
2022-08-18T16:50:15.634Z,28.50
2022-08-18T16:52:42.399Z,28.50
2022-08-18T16:55:11.596Z,28.30
2022-08-18T16:57:58.776Z,28.20
2022-08-18T17:00:44.821Z,28.10
2022-08-18T17:03:30.771Z,28.00
2022-08-18T17:06:07.105Z,28.10
2022-08-18T17:08:35.429Z,27.90
2022-08-18T17:11:09.464Z,28.10
2022-08-18T17:13:38.900Z,28.30
2022-08-18T17:16:06.913Z,28.40
2022-08-18T17:18:36.005Z,28.40
2022-08-18T17:21:07.058Z,28.30
2022-08-18T17:23:34.419Z,28.10
2022-08-18T17:26:09.618Z,28.00
2022-08-18T17:28:50.670Z,27.90
2022-08-18T17:31:24.366Z,27.80
2022-08-18T17:33:53.242Z,27.90
2022-08-18T17:36:33.549Z,27.80
2022-08-18T17:39:04.122Z,27.80
2022-08-18T17:41:31.002Z,27.80
2022-08-18T17:44:00.817Z,27.70
2022-08-18T17:46:37.499Z,27.70
2022-08-18T17:49:12.623Z,27.60
2022-08-18T17:51:46.266Z,27.50
2022-08-18T17:54:32.268Z,27.40
2022-08-18T17:57:08.879Z,27.20
2022-08-18T17:59:52.342Z,27.30
2022-08-18T18:02:29.580Z,27.40
2022-08-18T18:05:07.193Z,27.50
2022-08-18T18:07:40.453Z,27.60
2022-08-18T18:11:02.291Z,27.50
2022-08-18T18:13:32.336Z,27.50
2022-08-18T18:16:34.807Z,27.50
2022-08-18T18:19:06.414Z,27.60
2022-08-18T18:21:58.881Z,27.60
2022-08-18T18:24:31.043Z,27.60
2022-08-18T18:26:58.298Z,27.40
2022-08-18T18:29:35.667Z,27.20
2022-08-18T18:32:24.739Z,27.20
2022-08-18T18:35:15.860Z,27.40
2022-08-18T18:37:53.692Z,27.50
2022-08-18T18:40:25.816Z,27.50
2022-08-18T18:42:57.387Z,27.60
2022-08-18T18:45:30.988Z,27.60
2022-08-18T18:48:45.104Z,27.60
2022-08-18T18:51:10.922Z,27.70
2022-08-18T18:54:06.150Z,27.70
2022-08-18T18:56:33.280Z,27.60
2022-08-18T18:59:12.703Z,27.60
2022-08-18T19:02:03.850Z,27.60
2022-08-18T19:04:53.098Z,27.70
2022-08-18T19:07:34.527Z,27.70
2022-08-18T19:10:12.393Z,27.70
2022-08-18T19:12:57.861Z,27.60
2022-08-18T19:15:26.929Z,27.60
2022-08-18T19:18:17.498Z,27.50
2022-08-18T19:22:01.648Z,27.40
2022-08-18T19:23:45.199Z,27.30
2022-08-18T19:26:19.470Z,27.10
2022-08-18T19:29:13.547Z,27.10
2022-08-18T19:31:47.436Z,27.10
2022-08-18T19:34:31.498Z,27.10
2022-08-18T19:37:31.238Z,27.00
2022-08-18T19:40:09.303Z,27.00
2022-08-18T19:42:45.199Z,26.90
2022-08-18T19:45:20.741Z,26.90
2022-08-18T19:48:02.797Z,27.00
2022-08-18T19:50:51.456Z,27.00
2022-08-18T19:53:45.835Z,26.90
2022-08-18T19:56:35.784Z,27.00
2022-08-18T19:59:35.188Z,26.90
2022-08-18T20:02:16.554Z,26.90
2022-08-18T20:04:46.024Z,26.90
2022-08-18T20:07:31.396Z,26.80
2022-08-18T20:09:58.265Z,26.70
2022-08-18T20:12:52.898Z,26.70
2022-08-18T20:15:23.655Z,26.60
2022-08-18T20:17:53.647Z,26.50
2022-08-18T20:20:23.675Z,26.40
2022-08-18T20:22:57.021Z,26.20
2022-08-18T20:25:24.159Z,26.10
2022-08-18T20:28:23.496Z,26.20
2022-08-18T20:31:12.375Z,26.30
2022-08-18T20:33:46.764Z,26.40
2022-08-18T20:36:28.302Z,26.30
2022-08-18T20:38:58.651Z,26.30
2022-08-18T20:41:28.541Z,26.30
2022-08-18T20:44:04.353Z,26.30
2022-08-18T20:47:06.282Z,26.10
2022-08-18T20:50:10.509Z,25.90
2022-08-18T20:53:21.726Z,25.80
2022-08-18T20:56:12.810Z,25.90
2022-08-18T20:59:11.549Z,25.90
2022-08-18T21:01:39.054Z,25.60
2022-08-18T21:04:06.183Z,25.40
2022-08-18T21:06:41.886Z,25.20
2022-08-18T21:09:20.657Z,25.30
2022-08-18T21:11:48.093Z,25.30
2022-08-18T21:14:31.777Z,25.40
2022-08-18T21:16:59.314Z,25.50
2022-08-18T21:19:28.871Z,25.40
2022-08-18T21:22:01.120Z,25.30
2022-08-18T21:24:35.338Z,25.30
2022-08-18T21:27:40.406Z,25.30
2022-08-18T21:30:17.212Z,25.30
2022-08-18T21:32:49.819Z,25.30
2022-08-18T21:35:40.680Z,25.40
2022-08-18T21:38:10.096Z,25.30
2022-08-18T21:40:38.980Z,25.20
2022-08-18T21:43:10.944Z,25.20
2022-08-18T21:45:55.620Z,25.20
2022-08-18T21:48:23.146Z,25.20
2022-08-18T21:50:58.374Z,25.10
2022-08-18T21:53:41.797Z,25.10
2022-08-18T21:56:24.504Z,25.10
2022-08-18T21:59:24.363Z,25.00
2022-08-18T22:01:56.714Z,25.00
2022-08-18T22:04:54.277Z,25.00
2022-08-18T22:07:35.087Z,25.00
2022-08-18T22:10:41.877Z,25.10
2022-08-18T22:13:39.817Z,25.10
2022-08-18T22:16:23.649Z,25.10
2022-08-18T22:18:50.436Z,25.00
2022-08-18T22:21:49.717Z,25.00
2022-08-18T22:24:21.326Z,24.90
2022-08-18T22:26:50.635Z,24.80
2022-08-18T22:29:49.528Z,24.70
2022-08-18T22:32:16.852Z,24.60
2022-08-18T22:34:43.687Z,24.60
2022-08-18T22:37:25.445Z,24.60
2022-08-18T22:39:55.751Z,24.60
2022-08-18T22:42:28.585Z,24.40
2022-08-18T22:44:57.990Z,24.30
2022-08-18T22:47:27.475Z,24.40
2022-08-18T22:49:54.193Z,24.50
2022-08-18T22:52:32.942Z,24.50
2022-08-18T22:55:02.770Z,24.60
2022-08-18T22:57:38.055Z,24.60
2022-08-18T23:00:10.745Z,24.70
2022-08-18T23:02:37.782Z,24.70
2022-08-18T23:05:05.323Z,24.50
2022-08-18T23:07:32.503Z,24.40
2022-08-18T23:09:59.248Z,24.30
2022-08-18T23:12:26.104Z,24.20
2022-08-18T23:14:53.362Z,24.20
2022-08-18T23:17:23.325Z,24.20
2022-08-18T23:19:52.261Z,24.20
2022-08-18T23:22:19.324Z,24.30
2022-08-18T23:24:46.077Z,24.30
2022-08-18T23:27:12.960Z,24.30
2022-08-18T23:29:41.105Z,24.30
2022-08-18T23:32:08.048Z,24.30
2022-08-18T23:34:35.738Z,24.00
2022-08-18T23:37:04.664Z,24.00
2022-08-18T23:39:33.319Z,24.00
2022-08-18T23:42:00.925Z,24.00
2022-08-18T23:44:28.242Z,24.10
2022-08-18T23:46:56.650Z,24.10
2022-08-18T23:49:24.603Z,24.20
2022-08-18T23:51:55.251Z,24.30
2022-08-18T23:54:26.982Z,24.40
2022-08-18T23:56:53.743Z,24.40
2022-08-18T23:59:22.302Z,24.10
